Algosteel — VDJB — position and weather

sailwx.info

Track history (hours):
 
Tides and Currents Weather Stations Pressure Air Temp Water Temp Dewpoint Dewpoint Depression Visibility Wind Speed Wind Dir Waves Ship Positions

Algosteel

Last reported at 2017-Oct-18 04:17 UTC. Time now 2017-Oct-18 05:33 UTC.
Position N 45°14' W 074°09'.

Length 223 m; draft 8.1 m.

Type: Cargo ship. MMSI: 316001796.

Date/timePositionNaut miles runAvg speedWind from/ knotsBaromVisibWave heightAir tempDewpointWater temp
2017-Oct-18 04:17N 45°14' W 074°09'6 8.3
2017-Oct-18 03:34N 45°14' W 074°00'3 8.7
2017-Oct-18 03:17N 45°16' W 073°58'2 8.5
2017-Oct-18 03:01N 45°18' W 073°56'1 1.0
2017-Oct-18 02:31N 45°18' W 073°56'1 1.3
2017-Oct-18 02:01N 45°19' W 073°55'0 0.3
2017-Oct-18 01:31N 45°19' W 073°55'1 1.6
2017-Oct-18 01:00N 45°20' W 073°55'3 5.3
2017-Oct-18 00:30N 45°21' W 073°52'510.1
2017-Oct-18 00:00N 45°24' W 073°46'4 7.8
2017-Oct-17 23:30N 45°25' W 073°40'3 5.2
2017-Oct-17 22:55N 45°24' W 073°36'1 3.5
2017-Oct-17 22:31N 45°24' W 073°34'0 0.8
2017-Oct-17 22:01N 45°24' W 073°34'2 3.2
2017-Oct-17 21:30N 45°25' W 073°31'4 6.0
2017-Oct-17 20:51N 45°29' W 073°31'2 2.0
2017-Oct-17 20:07N 45°30' W 073°31'0 0.0
2017-Oct-16 08:20N 45°30' W 073°31'0 0.7
2017-Oct-16 07:41N 45°30' W 073°31'1 2.1
2017-Oct-16 07:22N 45°29' W 073°31'2 4.9
2017-Oct-16 07:00N 45°27' W 073°30'3 5.8
2017-Oct-16 06:31N 45°25' W 073°32'2 2.9
2017-Oct-16 05:59N 45°24' W 073°34'1 1.1
2017-Oct-16 05:30N 45°24' W 073°35'2 3.6
2017-Oct-16 04:59N 45°24' W 073°37'3 5.7
2017-Oct-16 04:31N 45°25' W 073°41'3 6.4
2017-Oct-16 04:01N 45°24' W 073°45'510.3
2017-Oct-16 03:31N 45°21' W 073°51'3 6.9
2017-Oct-16 03:01N 45°19' W 073°55'0 0.8
2017-Oct-16 02:31N 45°19' W 073°55'0 0.9
2017-Oct-16 02:00N 45°18' W 073°56'0 0.9
2017-Oct-16 01:31N 45°18' W 073°56'2 3.2
2017-Oct-16 00:55N 45°16' W 073°57'3 6.4
2017-Oct-16 00:26N 45°14' W 074°00'6 9.9
2017-Oct-15 23:51N 45°14' W 074°08'  
2017-Oct-12 18:51N 45°32' W 083°21'511.3
2017-Oct-12 18:27N 45°36' W 083°26'511.2
2017-Oct-12 17:58N 45°39' W 083°31'711.3
2017-Oct-12 17:23N 45°44' W 083°37'358 8.7
2017-Oct-11 00:00N 46°45' W 092°08'0 0.0
2017-Oct-10 23:30N 46°45' W 092°08'0 0.0
2017-Oct-10 23:00N 46°45' W 092°08'0 0.0
2017-Oct-10 22:30N 46°45' W 092°08'0 0.0
2017-Oct-10 22:00N 46°45' W 092°08'0 0.0
2017-Oct-10 21:30N 46°45' W 092°08'0 0.0
2017-Oct-10 21:00N 46°45' W 092°08'0 0.0
2017-Oct-10 20:30N 46°45' W 092°08'0 0.0
2017-Oct-10 20:00N 46°45' W 092°08'0 0.0
2017-Oct-10 19:30N 46°45' W 092°08'0 0.0
2017-Oct-10 19:00N 46°45' W 092°08'0 0.0
2017-Oct-10 18:30N 46°45' W 092°08'0 0.0
2017-Oct-10 18:00N 46°45' W 092°08'0 0.0
2017-Oct-10 17:30N 46°45' W 092°08'0 0.0
2017-Oct-10 17:00N 46°45' W 092°08'0 0.5
2017-Oct-10 16:30N 46°45' W 092°08'0 0.5
2017-Oct-10 16:00N 46°45' W 092°08'1 2.8
2017-Oct-10 15:30N 46°45' W 092°06'0 0.7
2017-Oct-10 15:00N 46°45' W 092°06'0 0.1
2017-Oct-10 14:00N 46°46' W 092°06'1 2.5
2017-Oct-10 13:30N 46°47' W 092°05'3 5.5
2017-Oct-10 13:00N 46°48' W 092°02'1 1.7
2017-Oct-10 12:30N 46°48' W 092°01'4 7.6
2017-Oct-10 12:00N 46°50' W 091°55'611.7
2017-Oct-10 11:30N 46°52' W 091°47'611.9
2017-Oct-10 11:00N 46°54' W 091°39'611.7
2017-Oct-10 10:30N 46°56' W 091°31'611.7
2017-Oct-10 10:00N 46°58' W 091°23'29710.1
2017-Oct-09 04:27N 46°23' W 084°13'6 8.6
2017-Oct-09 03:46N 46°19' W 084°07'2 8.8
2017-Oct-09 03:30N 46°17' W 084°07'3 6.2
2017-Oct-09 03:00N 46°13' W 084°07'5 9.1
2017-Oct-09 02:28N 46°09' W 084°03'510.4
2017-Oct-09 01:59N 46°05' W 084°01'611.6
2017-Oct-09 01:30N 46°02' W 083°54'611.2
2017-Oct-09 01:00N 45°56' W 083°54'611.6
2017-Oct-09 00:30N 45°54' W 084°01'612.3
2017-Oct-09 00:00N 45°51' W 084°09'612.1
2017-Oct-08 23:30N 45°51' W 084°18'612.1
2017-Oct-08 22:59N 45°51' W 084°27'612.1
2017-Oct-08 22:29N 45°51' W 084°35'511.4
2017-Oct-08 22:00N 45°49' W 084°43'612.0
2017-Oct-08 21:30N 45°50' W 084°51'612.3
2017-Oct-08 21:00N 45°51' W 084°60'612.4
2017-Oct-08 20:30N 45°51' W 085°09'612.4
2017-Oct-08 20:00N 45°52' W 085°18'612.3
2017-Oct-08 19:30N 45°53' W 085°26'612.5
2017-Oct-08 19:00N 45°53' W 085°35'612.3
2017-Oct-08 18:30N 45°50' W 085°43'612.6
2017-Oct-08 17:59N 45°47' W 085°51'912.4
2017-Oct-08 17:18N 45°41' W 086°01'512.4
2017-Oct-08 16:55N 45°38' W 086°06'512.6
2017-Oct-08 16:30N 45°35' W 086°11'612.6
2017-Oct-08 16:00N 45°30' W 086°17'712.8
2017-Oct-08 15:26N 45°24' W 086°23'1212.5
2017-Oct-08 14:30N 45°15' W 086°33'611.8
2017-Oct-08 14:00N 45°11' W 086°39'612.0
2017-Oct-08 13:29N 45°08' W 086°47'611.9
2017-Oct-08 12:59N 45°04' W 086°53'  
Track history (hours):
 
Tides and Currents Weather Stations Pressure Air Temp Water Temp Dewpoint Dewpoint Depression Visibility Wind Speed Wind Dir Waves Ship Positions

Algosteel

Last reported at 2017-Oct-18 04:17 UTC. Time now 2017-Oct-18 05:33 UTC.
Position N 45°14' W 074°09'.

Length 223 m; draft 8.1 m.

Type: Cargo ship. MMSI: 316001796.

Date/timePositionNaut miles runAvg speedWind from/ knotsBaromVisibWave heightAir tempDewpointWater temp
2017-Oct-18 04:17N 45°14' W 074°09'6 8.3
2017-Oct-18 03:34N 45°14' W 074°00'3 8.7
2017-Oct-18 03:17N 45°16' W 073°58'2 8.5
2017-Oct-18 03:01N 45°18' W 073°56'1 1.0
2017-Oct-18 02:31N 45°18' W 073°56'1 1.3
2017-Oct-18 02:01N 45°19' W 073°55'0 0.3
2017-Oct-18 01:31N 45°19' W 073°55'1 1.6
2017-Oct-18 01:00N 45°20' W 073°55'3 5.3
2017-Oct-18 00:30N 45°21' W 073°52'510.1
2017-Oct-18 00:00N 45°24' W 073°46'4 7.8
2017-Oct-17 23:30N 45°25' W 073°40'3 5.2
2017-Oct-17 22:55N 45°24' W 073°36'1 3.5
2017-Oct-17 22:31N 45°24' W 073°34'0 0.8
2017-Oct-17 22:01N 45°24' W 073°34'2 3.2
2017-Oct-17 21:30N 45°25' W 073°31'4 6.0
2017-Oct-17 20:51N 45°29' W 073°31'2 2.0
2017-Oct-17 20:07N 45°30' W 073°31'0 0.0
2017-Oct-16 08:20N 45°30' W 073°31'0 0.7
2017-Oct-16 07:41N 45°30' W 073°31'1 2.1
2017-Oct-16 07:22N 45°29' W 073°31'2 4.9
2017-Oct-16 07:00N 45°27' W 073°30'3 5.8
2017-Oct-16 06:31N 45°25' W 073°32'2 2.9
2017-Oct-16 05:59N 45°24' W 073°34'1 1.1
2017-Oct-16 05:30N 45°24' W 073°35'2 3.6
2017-Oct-16 04:59N 45°24' W 073°37'3 5.7
2017-Oct-16 04:31N 45°25' W 073°41'3 6.4
2017-Oct-16 04:01N 45°24' W 073°45'510.3
2017-Oct-16 03:31N 45°21' W 073°51'3 6.9
2017-Oct-16 03:01N 45°19' W 073°55'0 0.8
2017-Oct-16 02:31N 45°19' W 073°55'0 0.9
2017-Oct-16 02:00N 45°18' W 073°56'0 0.9
2017-Oct-16 01:31N 45°18' W 073°56'2 3.2
2017-Oct-16 00:55N 45°16' W 073°57'3 6.4
2017-Oct-16 00:26N 45°14' W 074°00'6 9.9
2017-Oct-15 23:51N 45°14' W 074°08'  
2017-Oct-12 18:51N 45°32' W 083°21'511.3
2017-Oct-12 18:27N 45°36' W 083°26'511.2
2017-Oct-12 17:58N 45°39' W 083°31'711.3
2017-Oct-12 17:23N 45°44' W 083°37'358 8.7
2017-Oct-11 00:00N 46°45' W 092°08'0 0.0
2017-Oct-10 23:30N 46°45' W 092°08'0 0.0
2017-Oct-10 23:00N 46°45' W 092°08'0 0.0
2017-Oct-10 22:30N 46°45' W 092°08'0 0.0
2017-Oct-10 22:00N 46°45' W 092°08'0 0.0
2017-Oct-10 21:30N 46°45' W 092°08'0 0.0
2017-Oct-10 21:00N 46°45' W 092°08'0 0.0
2017-Oct-10 20:30N 46°45' W 092°08'0 0.0
2017-Oct-10 20:00N 46°45' W 092°08'0 0.0
2017-Oct-10 19:30N 46°45' W 092°08'0 0.0
2017-Oct-10 19:00N 46°45' W 092°08'0 0.0
2017-Oct-10 18:30N 46°45' W 092°08'0 0.0
2017-Oct-10 18:00N 46°45' W 092°08'0 0.0
2017-Oct-10 17:30N 46°45' W 092°08'0 0.0
2017-Oct-10 17:00N 46°45' W 092°08'0 0.5
2017-Oct-10 16:30N 46°45' W 092°08'0 0.5
2017-Oct-10 16:00N 46°45' W 092°08'1 2.8
2017-Oct-10 15:30N 46°45' W 092°06'0 0.7
2017-Oct-10 15:00N 46°45' W 092°06'0 0.1
2017-Oct-10 14:00N 46°46' W 092°06'1 2.5
2017-Oct-10 13:30N 46°47' W 092°05'3 5.5
2017-Oct-10 13:00N 46°48' W 092°02'1 1.7
2017-Oct-10 12:30N 46°48' W 092°01'4 7.6
2017-Oct-10 12:00N 46°50' W 091°55'611.7
2017-Oct-10 11:30N 46°52' W 091°47'611.9
2017-Oct-10 11:00N 46°54' W 091°39'611.7
2017-Oct-10 10:30N 46°56' W 091°31'611.7
2017-Oct-10 10:00N 46°58' W 091°23'29710.1
2017-Oct-09 04:27N 46°23' W 084°13'6 8.6
2017-Oct-09 03:46N 46°19' W 084°07'2 8.8
2017-Oct-09 03:30N 46°17' W 084°07'3 6.2
2017-Oct-09 03:00N 46°13' W 084°07'5 9.1
2017-Oct-09 02:28N 46°09' W 084°03'510.4
2017-Oct-09 01:59N 46°05' W 084°01'611.6
2017-Oct-09 01:30N 46°02' W 083°54'611.2
2017-Oct-09 01:00N 45°56' W 083°54'611.6
2017-Oct-09 00:30N 45°54' W 084°01'612.3
2017-Oct-09 00:00N 45°51' W 084°09'612.1
2017-Oct-08 23:30N 45°51' W 084°18'612.1
2017-Oct-08 22:59N 45°51' W 084°27'612.1
2017-Oct-08 22:29N 45°51' W 084°35'511.4
2017-Oct-08 22:00N 45°49' W 084°43'612.0
2017-Oct-08 21:30N 45°50' W 084°51'612.3
2017-Oct-08 21:00N 45°51' W 084°60'612.4
2017-Oct-08 20:30N 45°51' W 085°09'612.4
2017-Oct-08 20:00N 45°52' W 085°18'612.3
2017-Oct-08 19:30N 45°53' W 085°26'612.5
2017-Oct-08 19:00N 45°53' W 085°35'612.3
2017-Oct-08 18:30N 45°50' W 085°43'612.6
2017-Oct-08 17:59N 45°47' W 085°51'912.4
2017-Oct-08 17:18N 45°41' W 086°01'512.4
2017-Oct-08 16:55N 45°38' W 086°06'512.6
2017-Oct-08 16:30N 45°35' W 086°11'612.6
2017-Oct-08 16:00N 45°30' W 086°17'712.8
2017-Oct-08 15:26N 45°24' W 086°23'1212.5
2017-Oct-08 14:30N 45°15' W 086°33'611.8
2017-Oct-08 14:00N 45°11' W 086°39'612.0
2017-Oct-08 13:29N 45°08' W 086°47'611.9
2017-Oct-08 12:59N 45°04' W 086°53'  

Dump ship's entire track history